createdAt,value
2018-08-09T00:01:16.235Z,49.40
2018-08-09T00:03:42.187Z,48.46
2018-08-09T00:06:08.176Z,48.56
2018-08-09T00:08:34.139Z,48.17
2018-08-09T00:11:00.136Z,48.34
2018-08-09T00:13:26.111Z,48.36
2018-08-09T00:15:52.156Z,49.45
2018-08-09T00:18:18.195Z,48.53
2018-08-09T00:20:44.162Z,48.62
2018-08-09T00:23:10.120Z,49.36
2018-08-09T00:25:36.109Z,49.38
2018-08-09T00:28:02.071Z,49.48
2018-08-09T00:30:28.063Z,48.93
2018-08-09T00:32:54.079Z,48.41
2018-08-09T00:35:20.037Z,48.48
2018-08-09T00:37:46.048Z,48.32
2018-08-09T00:40:12.016Z,48.40
2018-08-09T00:42:37.974Z,48.69
2018-08-09T00:45:03.955Z,48.35
2018-08-09T00:47:29.931Z,48.04
2018-08-09T00:49:55.898Z,48.21
2018-08-09T00:52:21.907Z,49.02
2018-08-09T00:54:47.933Z,48.47
2018-08-09T00:57:13.893Z,48.51
2018-08-09T00:59:39.839Z,48.35
2018-08-09T01:02:05.860Z,49.22
2018-08-09T01:04:31.847Z,49.47
2018-08-09T01:06:57.809Z,48.54
2018-08-09T01:09:23.895Z,48.79
2018-08-09T01:11:49.860Z,48.45
2018-08-09T01:14:15.824Z,48.80
2018-08-09T01:16:41.779Z,48.21
2018-08-09T01:19:07.761Z,48.35
2018-08-09T01:21:33.764Z,49.07
2018-08-09T01:23:59.719Z,48.29
2018-08-09T01:26:25.731Z,48.39
2018-08-09T01:28:51.740Z,48.87
2018-08-09T01:31:18.752Z,48.44
2018-08-09T01:33:44.745Z,48.87
2018-08-09T01:36:10.723Z,48.67
2018-08-09T01:38:36.719Z,49.32
2018-08-09T01:41:02.684Z,48.96
2018-08-09T01:43:28.670Z,48.61
2018-08-09T01:45:54.676Z,48.82
2018-08-09T01:48:20.649Z,49.65
2018-08-09T01:50:46.678Z,49.06
2018-08-09T01:53:12.687Z,48.69
2018-08-09T01:55:38.659Z,49.42
2018-08-09T01:58:04.616Z,49.63
2018-08-09T02:00:30.586Z,49.34
2018-08-09T02:02:56.543Z,49.41
2018-08-09T02:05:22.534Z,48.98
2018-08-09T02:07:48.498Z,49.53
2018-08-09T02:10:14.461Z,48.95
2018-08-09T02:12:40.415Z,48.55
2018-08-09T02:15:06.384Z,48.56
2018-08-09T02:17:32.363Z,49.09
2018-08-09T02:19:58.325Z,49.21
2018-08-09T02:22:24.303Z,49.27
2018-08-09T02:24:50.266Z,49.56
2018-08-09T02:27:16.253Z,48.72
2018-08-09T02:29:42.226Z,49.29
2018-08-09T02:32:08.229Z,49.58
2018-08-09T02:34:34.182Z,48.90
2018-08-09T02:37:00.181Z,48.78
2018-08-09T02:39:26.167Z,49.64
2018-08-09T02:41:52.131Z,49.61
2018-08-09T02:44:18.187Z,48.90
2018-08-09T02:46:44.177Z,49.43
2018-08-09T02:49:10.112Z,49.15
2018-08-09T02:51:36.091Z,48.84
2018-08-09T02:54:02.114Z,48.84
2018-08-09T02:56:28.082Z,49.95
2018-08-09T02:58:54.053Z,48.91
2018-08-09T03:01:20.027Z,49.62
2018-08-09T03:03:46.051Z,49.70
2018-08-09T03:06:12.044Z,49.70
2018-08-09T03:08:38.040Z,49.09
2018-08-09T03:11:04.017Z,49.59
2018-08-09T03:13:29.972Z,49.24
2018-08-09T03:15:55.947Z,49.08
2018-08-09T03:18:21.964Z,48.85
2018-08-09T03:20:47.908Z,49.68
2018-08-09T03:23:13.881Z,48.77
2018-08-09T03:25:39.843Z,49.69
2018-08-09T03:28:05.845Z,49.67
2018-08-09T03:30:31.801Z,49.91
2018-08-09T03:32:57.817Z,49.69
2018-08-09T03:35:23.772Z,49.19
2018-08-09T03:37:49.726Z,49.12
2018-08-09T03:40:15.683Z,49.03
2018-08-09T03:42:41.635Z,49.34
2018-08-09T03:45:07.636Z,50.19
2018-08-09T03:47:34.627Z,49.33
2018-08-09T03:50:00.590Z,49.47
2018-08-09T03:52:26.557Z,50.04
2018-08-09T03:54:52.522Z,49.24
2018-08-09T03:57:18.525Z,49.25
2018-08-09T03:59:44.523Z,50.14
2018-08-09T04:02:10.474Z,49.31
2018-08-09T04:04:36.442Z,49.90
2018-08-09T04:07:02.420Z,50.39
2018-08-09T04:09:28.383Z,50.46
2018-08-09T04:11:54.407Z,50.23
2018-08-09T04:14:20.324Z,50.24
2018-08-09T04:16:46.319Z,50.31
2018-08-09T04:19:12.283Z,49.28
2018-08-09T04:21:38.239Z,49.67
2018-08-09T04:24:04.209Z,50.14
2018-08-09T04:26:30.173Z,50.01
2018-08-09T04:28:56.133Z,49.36
2018-08-09T04:31:22.091Z,49.34
2018-08-09T04:33:48.064Z,50.09
2018-08-09T04:36:14.011Z,49.21
2018-08-09T04:38:40.018Z,49.30
2018-08-09T04:41:05.977Z,49.50
2018-08-09T04:43:31.971Z,49.45
2018-08-09T04:45:57.957Z,49.52
2018-08-09T04:48:23.919Z,49.90
2018-08-09T04:50:49.872Z,49.54
2018-08-09T04:53:15.835Z,50.49
2018-08-09T04:55:41.828Z,50.08
2018-08-09T04:58:07.832Z,49.21
2018-08-09T05:00:33.764Z,49.52
2018-08-09T05:02:59.725Z,48.99
2018-08-09T05:05:25.690Z,49.24
2018-08-09T05:07:51.660Z,50.40
2018-08-09T05:10:17.637Z,50.13
2018-08-09T05:12:43.584Z,50.08
2018-08-09T05:15:09.569Z,49.39
2018-08-09T05:17:35.556Z,50.31
2018-08-09T05:20:01.545Z,50.50
2018-08-09T05:22:27.499Z,50.19
2018-08-09T05:24:53.471Z,50.28
2018-08-09T05:27:19.441Z,49.45
2018-08-09T05:29:45.408Z,49.62
2018-08-09T05:32:11.368Z,50.36
2018-08-09T05:34:37.349Z,50.53
2018-08-09T05:37:03.322Z,49.68
2018-08-09T05:39:30.305Z,50.37
2018-08-09T05:41:56.272Z,50.70
2018-08-09T05:44:22.264Z,49.49
2018-08-09T05:46:48.231Z,49.94
2018-08-09T05:49:14.203Z,50.09
2018-08-09T05:51:40.159Z,51.15
2018-08-09T05:54:06.117Z,49.83
2018-08-09T05:56:32.072Z,49.73
2018-08-09T05:58:58.035Z,51.00
2018-08-09T06:01:24.010Z,50.50
2018-08-09T06:03:49.980Z,49.89
2018-08-09T06:06:15.988Z,49.77
2018-08-09T06:08:41.919Z,49.41
2018-08-09T06:11:07.914Z,50.33
2018-08-09T06:13:33.945Z,49.73
2018-08-09T06:15:59.843Z,50.43
2018-08-09T06:18:25.793Z,50.00
2018-08-09T06:20:51.785Z,49.27
2018-08-09T06:23:17.776Z,49.79
2018-08-09T06:25:43.745Z,49.74
2018-08-09T06:28:09.804Z,50.43
2018-08-09T06:30:35.912Z,50.55
2018-08-09T06:33:01.878Z,50.72
2018-08-09T06:35:27.915Z,49.86
2018-08-09T06:37:53.881Z,50.97
2018-08-09T06:40:19.876Z,50.41
2018-08-09T06:42:45.912Z,51.52
2018-08-09T06:45:11.889Z,50.03
2018-08-09T06:47:37.870Z,51.63
2018-08-09T06:50:03.812Z,50.89
2018-08-09T06:52:29.761Z,50.46
2018-08-09T06:54:55.747Z,51.58
2018-08-09T06:57:21.699Z,50.94
2018-08-09T06:59:47.666Z,51.83
2018-08-09T07:02:13.653Z,51.93
2018-08-09T07:04:39.613Z,51.31
2018-08-09T07:07:05.605Z,50.99
2018-08-09T07:09:31.553Z,51.05
2018-08-09T07:11:57.540Z,51.19
2018-08-09T07:14:23.508Z,51.68
2018-08-09T07:16:49.472Z,51.67
2018-08-09T07:19:15.419Z,50.73
2018-08-09T07:21:41.394Z,52.07
2018-08-09T07:24:07.352Z,51.29
2018-08-09T07:26:33.368Z,51.75
2018-08-09T07:28:59.268Z,50.89
2018-08-09T07:31:25.230Z,51.34
2018-08-09T07:33:51.215Z,51.65
2018-08-09T07:36:17.179Z,51.20
2018-08-09T07:38:43.389Z,50.77
2018-08-09T07:41:09.351Z,51.72
2018-08-09T07:43:35.383Z,51.54
2018-08-09T07:46:01.365Z,51.64
2018-08-09T07:48:27.374Z,52.54
2018-08-09T07:50:53.287Z,51.99
2018-08-09T07:53:19.234Z,52.47
2018-08-09T07:55:45.209Z,51.83
2018-08-09T07:58:11.175Z,52.35
2018-08-09T08:00:37.132Z,50.71
2018-08-09T08:03:03.125Z,52.33
2018-08-09T08:05:29.100Z,52.09
2018-08-09T08:07:55.169Z,51.67
2018-08-09T08:10:21.182Z,52.41
2018-08-09T08:12:47.153Z,52.22
2018-08-09T08:15:13.117Z,53.02
2018-08-09T08:17:39.094Z,51.31
2018-08-09T08:20:05.079Z,52.68
2018-08-09T08:22:31.054Z,52.54
2018-08-09T08:24:58.044Z,53.42
2018-08-09T08:27:24.003Z,52.94
2018-08-09T08:29:49.981Z,52.19
2018-08-09T08:32:16.059Z,51.72
2018-08-09T08:34:42.081Z,52.90
2018-08-09T08:37:07.995Z,52.81
2018-08-09T08:39:34.066Z,52.18
2018-08-09T08:42:00.040Z,53.74
2018-08-09T08:44:26.044Z,52.51
2018-08-09T08:46:52.011Z,53.16
2018-08-09T08:49:17.992Z,53.12
2018-08-09T08:51:43.972Z,53.15
2018-08-09T08:54:09.960Z,53.21
2018-08-09T08:56:36.065Z,52.81
2018-08-09T08:59:02.026Z,53.68
2018-08-09T09:01:28.017Z,53.28
2018-08-09T09:03:54.016Z,53.26
2018-08-09T09:06:20.072Z,52.85
2018-08-09T09:08:46.114Z,53.14
2018-08-09T09:11:12.092Z,53.25
2018-08-09T09:13:38.174Z,54.51
2018-08-09T09:16:04.160Z,55.33
2018-08-09T09:18:30.142Z,54.19
2018-08-09T09:20:56.170Z,54.30
2018-08-09T09:23:22.181Z,53.10
2018-08-09T09:25:48.127Z,54.12
2018-08-09T09:28:14.103Z,54.16
2018-08-09T09:30:40.075Z,53.51
2018-08-09T09:33:06.059Z,52.33
2018-08-09T09:35:32.012Z,52.82
2018-08-09T09:37:57.993Z,52.80
2018-08-09T09:40:24.999Z,53.99
2018-08-09T09:42:50.956Z,53.10
2018-08-09T09:45:17.052Z,53.33
2018-08-09T09:47:43.019Z,52.35
2018-08-09T09:50:09.014Z,52.74
2018-08-09T09:52:34.979Z,52.47
2018-08-09T09:55:00.971Z,53.14
2018-08-09T09:57:26.919Z,53.53
2018-08-09T09:59:53.029Z,52.75
2018-08-09T10:02:19.135Z,53.10
2018-08-09T10:04:45.119Z,52.04
2018-08-09T10:07:11.170Z,52.25
2018-08-09T10:09:37.077Z,53.54
2018-08-09T10:12:03.050Z,52.29
2018-08-09T10:14:29.036Z,52.85
2018-08-09T10:16:54.998Z,52.80
2018-08-09T10:19:20.969Z,53.17
2018-08-09T10:21:46.940Z,52.24
2018-08-09T10:24:12.927Z,52.46
2018-08-09T10:26:38.939Z,52.76
2018-08-09T10:29:04.960Z,52.75
2018-08-09T10:31:30.956Z,53.23
2018-08-09T10:33:56.916Z,51.95
2018-08-09T10:36:22.875Z,53.13
2018-08-09T10:38:48.835Z,52.96
2018-08-09T10:41:14.923Z,52.60
2018-08-09T10:43:40.898Z,53.72
2018-08-09T10:46:06.878Z,51.84
2018-08-09T10:48:32.875Z,52.95
2018-08-09T10:50:58.844Z,53.29
2018-08-09T10:53:24.819Z,53.01
2018-08-09T10:55:50.790Z,53.64
2018-08-09T10:58:16.779Z,52.79
2018-08-09T11:00:42.750Z,53.14
2018-08-09T11:03:09.875Z,53.29
2018-08-09T11:05:35.911Z,53.59
2018-08-09T11:08:02.961Z,54.20
2018-08-09T11:10:28.996Z,52.42
2018-08-09T11:12:54.981Z,52.38
2018-08-09T11:15:21.042Z,53.66
2018-08-09T11:17:47.032Z,52.23
2018-08-09T11:20:13.016Z,53.40
2018-08-09T11:22:39.034Z,53.42
2018-08-09T11:25:04.996Z,54.02
2018-08-09T11:27:30.968Z,52.50
2018-08-09T11:29:57.009Z,54.15
2018-08-09T11:32:23.077Z,54.20
2018-08-09T11:34:49.098Z,52.92
2018-08-09T11:37:15.130Z,53.01
2018-08-09T11:39:41.114Z,53.17
2018-08-09T11:42:07.072Z,53.26
2018-08-09T11:44:33.065Z,53.20
2018-08-09T11:46:59.063Z,53.65
2018-08-09T11:49:25.073Z,52.69
2018-08-09T11:51:51.017Z,52.12
2018-08-09T11:54:17.000Z,53.00
2018-08-09T11:56:43.088Z,53.66
2018-08-09T11:59:08.977Z,53.27
2018-08-09T12:01:35.005Z,53.60
2018-08-09T12:04:00.907Z,54.28
2018-08-09T12:06:26.880Z,53.22
2018-08-09T12:08:52.864Z,53.82
2018-08-09T12:11:18.835Z,52.96
2018-08-09T12:13:44.785Z,53.41
2018-08-09T12:16:10.773Z,53.22
2018-08-09T12:18:36.743Z,53.61
2018-08-09T12:21:02.730Z,53.43
2018-08-09T12:23:28.704Z,53.91
2018-08-09T12:25:54.772Z,53.75
2018-08-09T12:28:20.740Z,54.54
2018-08-09T12:30:46.697Z,54.07
2018-08-09T12:33:12.723Z,53.16
2018-08-09T12:35:38.630Z,53.21
2018-08-09T12:38:04.603Z,54.39
2018-08-09T12:40:30.579Z,53.18
2018-08-09T12:42:56.581Z,54.23
2018-08-09T12:45:22.625Z,53.62
2018-08-09T12:47:48.622Z,54.23
2018-08-09T12:50:14.664Z,55.21
2018-08-09T12:52:40.627Z,53.75
2018-08-09T12:55:06.583Z,55.34
2018-08-09T12:57:32.551Z,53.99
2018-08-09T12:59:58.532Z,53.68
2018-08-09T13:02:24.483Z,53.27
2018-08-09T13:04:50.444Z,53.64
2018-08-09T13:07:16.399Z,53.64
2018-08-09T13:09:42.356Z,54.23
2018-08-09T13:12:08.343Z,53.68
2018-08-09T13:14:35.352Z,52.19
2018-08-09T13:17:01.526Z,52.58
2018-08-09T13:19:27.485Z,52.94
2018-08-09T13:21:53.456Z,53.37
2018-08-09T13:24:19.471Z,54.28
2018-08-09T13:26:45.475Z,55.74
2018-08-09T13:29:12.455Z,56.15
2018-08-09T13:31:38.424Z,56.50
2018-08-09T13:34:04.386Z,56.69
2018-08-09T13:36:30.353Z,56.56
2018-08-09T13:38:56.316Z,57.34
2018-08-09T13:41:22.271Z,57.26
2018-08-09T13:43:48.317Z,56.64
2018-08-09T13:46:14.285Z,56.70
2018-08-09T13:48:40.288Z,57.65
2018-08-09T13:51:06.233Z,57.73
2018-08-09T13:53:32.361Z,57.01
2018-08-09T13:55:58.331Z,57.74
2018-08-09T13:58:24.311Z,56.92
2018-08-09T14:00:50.287Z,56.43
2018-08-09T14:03:16.305Z,57.03
2018-08-09T14:05:42.287Z,57.65
2018-08-09T14:08:08.314Z,57.68
2018-08-09T14:10:35.325Z,57.03
2018-08-09T14:13:01.337Z,57.77
2018-08-09T14:15:27.361Z,57.59
2018-08-09T14:17:53.341Z,57.20
2018-08-09T14:20:19.297Z,58.05
2018-08-09T14:22:45.322Z,57.93
2018-08-09T14:25:11.318Z,57.85
2018-08-09T14:27:37.370Z,57.33
2018-08-09T14:30:03.415Z,57.27
2018-08-09T14:32:29.457Z,57.20
2018-08-09T14:34:55.452Z,57.10
2018-08-09T14:37:21.406Z,58.23
2018-08-09T14:39:47.356Z,56.99
2018-08-09T14:42:13.350Z,57.34
2018-08-09T14:44:39.325Z,56.80
2018-08-09T14:47:05.307Z,57.40
2018-08-09T14:49:31.259Z,56.63
2018-08-09T14:51:57.239Z,57.57
2018-08-09T14:54:23.269Z,56.82
2018-08-09T14:56:49.233Z,57.63
2018-08-09T14:59:15.190Z,56.80
2018-08-09T15:01:41.200Z,57.65
2018-08-09T15:04:07.148Z,56.52
2018-08-09T15:06:33.313Z,56.80
2018-08-09T15:08:59.285Z,56.75
2018-08-09T15:11:25.444Z,57.63
2018-08-09T15:13:51.394Z,57.32
2018-08-09T15:16:17.357Z,57.34
2018-08-09T15:18:43.356Z,56.74
2018-08-09T15:21:09.272Z,56.94
2018-08-09T15:23:35.248Z,57.88
2018-08-09T15:26:01.410Z,56.98
2018-08-09T15:28:27.548Z,56.93
2018-08-09T15:30:53.531Z,57.59
2018-08-09T15:33:19.511Z,57.08
2018-08-09T15:35:45.481Z,56.60
2018-08-09T15:38:11.464Z,57.19
2018-08-09T15:40:37.445Z,57.03
2018-08-09T15:43:03.466Z,57.87
2018-08-09T15:45:29.418Z,57.37
2018-08-09T15:47:55.437Z,57.06
2018-08-09T15:50:21.400Z,57.55
2018-08-09T15:52:47.393Z,57.27
2018-08-09T15:55:13.352Z,58.13
2018-08-09T15:57:39.315Z,57.93
2018-08-09T16:00:05.301Z,57.06
2018-08-09T16:02:31.385Z,58.20
2018-08-09T16:04:57.264Z,57.98
2018-08-09T16:07:23.300Z,57.31
2018-08-09T16:09:49.281Z,57.21
2018-08-09T16:12:15.281Z,57.56
2018-08-09T16:14:41.401Z,57.23
2018-08-09T16:17:07.353Z,57.88
2018-08-09T16:19:33.391Z,57.23
2018-08-09T16:21:59.368Z,57.99
2018-08-09T16:24:25.338Z,57.25
2018-08-09T16:26:51.317Z,57.52
2018-08-09T16:29:17.284Z,58.06
2018-08-09T16:31:43.351Z,57.31
2018-08-09T16:34:09.320Z,58.17
2018-08-09T16:36:35.281Z,57.70
2018-08-09T16:39:01.242Z,57.47
2018-08-09T16:41:27.253Z,58.14
2018-08-09T16:43:53.209Z,57.31
2018-08-09T16:46:19.202Z,57.33
2018-08-09T16:48:45.181Z,57.64
2018-08-09T16:51:11.128Z,58.36
2018-08-09T16:53:37.093Z,58.09
2018-08-09T16:56:04.114Z,58.64
2018-08-09T16:58:30.089Z,58.52
2018-08-09T17:00:56.078Z,57.97
2018-08-09T17:03:22.067Z,58.59
2018-08-09T17:05:48.041Z,57.90
2018-08-09T17:08:14.012Z,57.99
2018-08-09T17:10:39.985Z,57.92
2018-08-09T17:13:05.956Z,57.85
2018-08-09T17:15:31.964Z,57.32
2018-08-09T17:17:57.885Z,57.22
2018-08-09T17:20:23.868Z,55.66
2018-08-09T17:22:49.821Z,56.35
2018-08-09T17:25:15.791Z,53.22
2018-08-09T17:27:41.755Z,52.64
2018-08-09T17:30:07.955Z,53.11
2018-08-09T17:32:33.955Z,52.81
2018-08-09T17:34:59.916Z,51.90
2018-08-09T17:37:25.901Z,51.74
2018-08-09T17:39:51.881Z,51.38
2018-08-09T17:42:17.959Z,51.31
2018-08-09T17:44:43.913Z,51.20
2018-08-09T17:47:09.864Z,51.57
2018-08-09T17:49:35.830Z,50.78
2018-08-09T17:52:01.774Z,49.68
2018-08-09T17:54:27.756Z,51.46
2018-08-09T17:56:53.718Z,50.13
2018-08-09T17:59:19.732Z,50.21
2018-08-09T18:01:45.640Z,49.83
2018-08-09T18:04:11.604Z,49.98
2018-08-09T18:06:37.579Z,50.48
2018-08-09T18:09:03.768Z,49.78
2018-08-09T18:11:29.751Z,51.02
2018-08-09T18:13:55.701Z,51.34
2018-08-09T18:16:21.757Z,51.27
2018-08-09T18:18:47.732Z,51.17
2018-08-09T18:21:13.696Z,50.68
2018-08-09T18:23:39.665Z,52.03
2018-08-09T18:26:05.687Z,51.03
2018-08-09T18:28:31.652Z,51.06
2018-08-09T18:30:57.709Z,52.03
2018-08-09T18:33:23.669Z,51.61
2018-08-09T18:35:49.639Z,51.72
2018-08-09T18:38:15.604Z,51.69
2018-08-09T18:40:41.647Z,50.65
2018-08-09T18:43:07.638Z,51.06
2018-08-09T18:45:33.589Z,51.85
2018-08-09T18:47:59.636Z,52.05
2018-08-09T18:50:25.621Z,51.57
2018-08-09T18:52:51.601Z,51.42
2018-08-09T18:55:17.580Z,51.25
2018-08-09T18:57:43.547Z,50.83
2018-08-09T19:00:10.575Z,51.07
2018-08-09T19:02:36.588Z,51.69
2018-08-09T19:05:02.564Z,51.48
2018-08-09T19:07:28.566Z,51.70
2018-08-09T19:09:54.492Z,51.21
2018-08-09T19:12:20.482Z,51.66
2018-08-09T19:14:46.547Z,51.66
2018-08-09T19:17:12.424Z,52.45
2018-08-09T19:19:38.405Z,52.46
2018-08-09T19:22:04.406Z,52.82
2018-08-09T19:24:30.407Z,52.68
2018-08-09T19:26:56.466Z,53.54
2018-08-09T19:29:22.370Z,53.00
2018-08-09T19:31:48.334Z,53.79
2018-08-09T19:34:14.392Z,52.90
2018-08-09T19:36:40.341Z,52.42
2018-08-09T19:39:06.473Z,52.48
2018-08-09T19:41:32.283Z,53.04
2018-08-09T19:43:58.283Z,52.53
2018-08-09T19:46:24.240Z,52.28
2018-08-09T19:48:50.316Z,51.49
2018-08-09T19:51:16.284Z,52.14
2018-08-09T19:53:42.240Z,51.80
2018-08-09T19:56:08.205Z,52.78
2018-08-09T19:58:34.278Z,52.64
2018-08-09T20:01:00.248Z,51.61
2018-08-09T20:03:26.199Z,51.84
2018-08-09T20:05:52.241Z,51.99
2018-08-09T20:08:18.267Z,52.05
2018-08-09T20:10:44.288Z,51.45
2018-08-09T20:13:10.270Z,52.11
2018-08-09T20:15:36.268Z,51.26
2018-08-09T20:18:02.286Z,52.01
2018-08-09T20:20:28.316Z,52.68
2018-08-09T20:22:55.446Z,51.59
2018-08-09T20:25:21.407Z,52.35
2018-08-09T20:27:47.405Z,51.30
2018-08-09T20:30:13.479Z,52.68
2018-08-09T20:32:39.499Z,52.10
2018-08-09T20:35:05.521Z,52.61
2018-08-09T20:37:31.476Z,52.74
2018-08-09T20:39:57.460Z,52.33
2018-08-09T20:42:23.448Z,52.86
2018-08-09T20:44:49.408Z,52.53
2018-08-09T20:47:15.364Z,51.70
2018-08-09T20:49:41.401Z,51.58
2018-08-09T20:52:07.388Z,52.46
2018-08-09T20:54:33.376Z,52.25
2018-08-09T20:56:59.346Z,52.85
2018-08-09T20:59:25.329Z,52.54
2018-08-09T21:01:51.295Z,52.22
2018-08-09T21:04:17.243Z,51.47
2018-08-09T21:06:43.234Z,52.22
2018-08-09T21:09:09.336Z,52.05
2018-08-09T21:11:35.384Z,52.01
2018-08-09T21:14:02.330Z,51.56
2018-08-09T21:16:28.317Z,51.29
2018-08-09T21:18:54.275Z,51.37
2018-08-09T21:21:20.253Z,51.23
2018-08-09T21:23:46.312Z,50.58
2018-08-09T21:26:12.339Z,51.38
2018-08-09T21:31:10.123Z,50.63
2018-08-09T21:33:36.148Z,50.32
2018-08-09T21:36:02.179Z,50.20
2018-08-09T21:38:28.168Z,50.29
2018-08-09T21:40:54.136Z,49.86
2018-08-09T21:43:20.090Z,49.24
2018-08-09T21:45:46.080Z,49.08
2018-08-09T21:48:12.070Z,48.81
2018-08-09T21:50:38.046Z,49.46
2018-08-09T21:53:04.004Z,49.39
2018-08-09T21:55:30.080Z,49.85
2018-08-09T21:57:56.518Z,50.18
2018-08-09T22:00:22.487Z,50.20
2018-08-09T22:02:48.449Z,49.04
2018-08-09T22:05:14.429Z,50.31
2018-08-09T22:07:40.376Z,49.35
2018-08-09T22:10:06.361Z,49.45
2018-08-09T22:12:32.322Z,49.66
2018-08-09T22:14:58.328Z,49.96
2018-08-09T22:17:24.274Z,49.33
2018-08-09T22:19:50.288Z,49.12
2018-08-09T22:22:16.364Z,49.81
2018-08-09T22:24:42.338Z,49.26
2018-08-09T22:27:08.295Z,50.29
2018-08-09T22:29:34.267Z,50.00
2018-08-09T22:32:00.243Z,49.47
2018-08-09T22:34:26.275Z,49.19
2018-08-09T22:36:52.258Z,49.39
2018-08-09T22:39:18.200Z,50.05
2018-08-09T22:41:44.213Z,50.04
2018-08-09T22:44:10.194Z,50.00
2018-08-09T22:46:36.172Z,48.78
2018-08-09T22:49:02.149Z,48.65
2018-08-09T22:51:28.118Z,49.99
2018-08-09T22:53:54.116Z,48.10
2018-08-09T22:56:20.069Z,48.92
2018-08-09T22:58:46.087Z,48.88
2018-08-09T23:01:12.056Z,49.78
2018-08-09T23:03:38.161Z,49.00
2018-08-09T23:06:04.101Z,49.38
2018-08-09T23:08:30.070Z,49.03
2018-08-09T23:11:29.988Z,49.52
2018-08-09T23:13:56.109Z,49.22
2018-08-09T23:16:22.103Z,48.95
2018-08-09T23:18:48.069Z,49.42
2018-08-09T23:21:14.052Z,48.53
2018-08-09T23:23:40.020Z,48.95
2018-08-09T23:26:05.980Z,49.59
2018-08-09T23:28:31.931Z,48.22
2018-08-09T23:30:57.901Z,49.39
2018-08-09T23:33:23.856Z,48.77
2018-08-09T23:35:49.819Z,49.15
2018-08-09T23:38:15.776Z,49.02
2018-08-09T23:40:41.718Z,50.17
2018-08-09T23:43:07.714Z,50.06
2018-08-09T23:45:33.912Z,50.09
2018-08-09T23:47:59.973Z,49.91
2018-08-09T23:50:25.937Z,50.42
2018-08-09T23:52:52.890Z,50.14
2018-08-09T23:55:19.451Z,49.80
2018-08-09T23:57:45.440Z,50.28
